createdAt,value
2018-06-02T00:00:11.500Z,0.00
2018-06-02T00:01:09.499Z,0.00
2018-06-02T00:02:09.294Z,0.00
2018-06-02T00:03:09.730Z,0.00
2018-06-02T00:04:09.719Z,0.00
2018-06-02T00:05:09.786Z,0.00
2018-06-02T00:06:09.518Z,0.00
2018-06-02T00:07:09.517Z,0.00
2018-06-02T00:08:09.483Z,0.00
2018-06-02T00:09:09.511Z,0.00
2018-06-02T00:10:09.527Z,0.00
2018-06-02T00:11:09.628Z,0.00
2018-06-02T00:12:09.523Z,0.00
2018-06-02T00:13:09.002Z,0.00
2018-06-02T00:14:09.470Z,0.00
2018-06-02T00:15:09.475Z,0.00
2018-06-02T00:16:09.720Z,0.00
2018-06-02T00:17:09.488Z,0.00
2018-06-02T00:18:09.530Z,0.00
2018-06-02T00:19:09.522Z,0.00
2018-06-02T00:20:09.473Z,0.00
2018-06-02T00:21:09.497Z,0.00
2018-06-02T00:22:09.492Z,0.00
2018-06-02T00:23:09.512Z,0.00
2018-06-02T00:24:09.524Z,0.00
2018-06-02T00:25:09.528Z,0.00
2018-06-02T00:26:09.542Z,0.00
2018-06-02T00:27:09.525Z,0.00
2018-06-02T00:28:09.095Z,0.00
2018-06-02T00:29:09.530Z,0.00
2018-06-02T00:30:09.533Z,0.00
2018-06-02T00:31:09.747Z,0.00
2018-06-02T00:32:09.511Z,0.00
2018-06-02T00:33:09.764Z,0.00
2018-06-02T00:34:09.484Z,0.00
2018-06-02T00:35:09.727Z,0.00
2018-06-02T00:36:09.490Z,0.00
2018-06-02T00:37:09.505Z,0.00
2018-06-02T00:38:09.517Z,0.00
2018-06-02T00:39:09.503Z,0.00
2018-06-02T00:40:09.495Z,0.00
2018-06-02T00:41:09.518Z,0.00
2018-06-02T00:42:09.537Z,0.00
2018-06-02T00:43:09.516Z,0.00
2018-06-02T00:44:09.083Z,0.00
2018-06-02T00:45:09.522Z,0.00
2018-06-02T00:46:09.535Z,0.00
2018-06-02T00:47:09.527Z,0.00
2018-06-02T00:48:09.774Z,0.00
2018-06-02T00:49:09.548Z,0.00
2018-06-02T00:50:09.558Z,0.00
2018-06-02T00:51:09.834Z,0.00
2018-06-02T00:52:09.530Z,0.00
2018-06-02T00:53:09.496Z,0.00
2018-06-02T00:54:09.487Z,0.00
2018-06-02T00:55:09.540Z,0.00
2018-06-02T00:56:09.527Z,0.00
2018-06-02T00:57:09.544Z,0.00
2018-06-02T00:58:09.530Z,0.00
2018-06-02T00:59:09.544Z,0.00
2018-06-02T01:00:11.744Z,0.00
2018-06-02T01:01:09.467Z,0.00
2018-06-02T01:02:09.488Z,0.00
2018-06-02T01:03:09.476Z,0.00
2018-06-02T01:04:14.843Z,0.00
2018-06-02T01:05:09.488Z,0.00
2018-06-02T01:06:09.476Z,0.00
2018-06-02T01:07:11.274Z,0.00
2018-06-02T01:08:11.279Z,0.00
2018-06-02T01:09:09.539Z,0.00
2018-06-02T01:10:09.530Z,0.00
2018-06-02T01:11:09.534Z,0.00
2018-06-02T01:12:09.504Z,0.00
2018-06-02T01:13:09.533Z,0.00
2018-06-02T01:14:09.529Z,0.00
2018-06-02T01:15:09.759Z,0.00
2018-06-02T01:16:09.559Z,0.00
2018-06-02T01:17:09.540Z,0.00
2018-06-02T01:18:09.550Z,0.00
2018-06-02T01:19:09.538Z,0.00
2018-06-02T01:20:09.539Z,0.00
2018-06-02T01:21:09.543Z,0.00
2018-06-02T01:22:09.525Z,0.00
2018-06-02T01:23:09.736Z,0.00
2018-06-02T01:24:09.578Z,0.00
2018-06-02T01:25:09.557Z,0.00
2018-06-02T01:26:09.745Z,0.00
2018-06-02T01:27:09.527Z,0.00
2018-06-02T01:28:09.527Z,0.00
2018-06-02T01:29:09.487Z,0.00
2018-06-02T01:30:09.513Z,0.00
2018-06-02T01:31:09.516Z,0.00
2018-06-02T01:32:09.535Z,0.00
2018-06-02T01:33:10.246Z,0.00
2018-06-02T01:34:09.558Z,0.00
2018-06-02T01:35:09.546Z,0.00
2018-06-02T01:36:13.768Z,0.00
2018-06-02T01:37:09.562Z,0.00
2018-06-02T01:38:09.515Z,0.00
2018-06-02T01:39:09.545Z,0.00
2018-06-02T01:40:09.553Z,0.00
2018-06-02T01:41:09.828Z,0.00
2018-06-02T01:42:09.548Z,0.00
2018-06-02T01:43:09.561Z,0.00
2018-06-02T01:44:09.569Z,0.00
2018-06-02T01:45:09.606Z,0.00
2018-06-02T01:46:09.593Z,0.00
2018-06-02T01:47:09.585Z,0.00
2018-06-02T01:48:09.536Z,0.00
2018-06-02T01:49:09.556Z,0.00
2018-06-02T01:50:09.580Z,0.00
2018-06-02T01:51:09.768Z,0.00
2018-06-02T01:52:09.531Z,0.00
2018-06-02T01:53:09.520Z,0.00
2018-06-02T01:54:09.490Z,0.00
2018-06-02T01:55:09.529Z,0.00
2018-06-02T01:56:09.527Z,0.00
2018-06-02T01:57:09.161Z,0.00
2018-06-02T01:58:09.572Z,0.00
2018-06-02T01:59:09.568Z,0.00
2018-06-02T02:00:09.544Z,0.00
2018-06-02T02:01:09.542Z,0.00
2018-06-02T02:02:09.550Z,0.00
2018-06-02T02:03:09.562Z,0.00
2018-06-02T02:04:09.557Z,0.00
2018-06-02T02:05:09.577Z,0.00
2018-06-02T02:06:09.547Z,0.00
2018-06-02T02:07:09.600Z,0.00
2018-06-02T02:08:09.583Z,0.00
2018-06-02T02:09:09.571Z,0.00
2018-06-02T02:10:09.589Z,0.00
2018-06-02T02:11:15.541Z,0.00
2018-06-02T02:12:09.540Z,0.00
2018-06-02T02:13:09.589Z,0.00
2018-06-02T02:14:09.540Z,0.00
2018-06-02T02:15:09.490Z,0.00
2018-06-02T02:16:09.492Z,0.00
2018-06-02T02:17:09.613Z,0.00
2018-06-02T02:18:09.590Z,0.00
2018-06-02T02:19:09.620Z,0.00
2018-06-02T02:20:09.225Z,0.00
2018-06-02T02:21:09.592Z,0.00
2018-06-02T02:22:09.603Z,0.00
2018-06-02T02:23:09.566Z,0.00
2018-06-02T02:24:09.546Z,0.00
2018-06-02T02:25:09.533Z,0.00
2018-06-02T02:26:09.540Z,0.00
2018-06-02T02:27:09.570Z,0.00
2018-06-02T02:28:09.548Z,0.00
2018-06-02T02:29:09.558Z,0.00
2018-06-02T02:30:09.589Z,0.00
2018-06-02T02:31:15.539Z,0.00
2018-06-02T02:32:09.571Z,0.00
2018-06-02T02:33:09.581Z,0.00
2018-06-02T02:34:09.547Z,0.00
2018-06-02T02:35:09.613Z,0.00
2018-06-02T02:36:11.386Z,0.00
2018-06-02T02:37:11.545Z,0.00
2018-06-02T02:38:09.630Z,0.00
2018-06-02T02:39:09.630Z,0.00
2018-06-02T02:40:09.673Z,0.00
2018-06-02T02:41:09.618Z,0.00
2018-06-02T02:42:09.640Z,0.00
2018-06-02T02:43:09.518Z,0.00
2018-06-02T02:44:09.767Z,0.00
2018-06-02T02:45:09.594Z,0.00
2018-06-02T02:46:09.695Z,0.00
2018-06-02T02:47:09.609Z,0.00
2018-06-02T02:48:09.571Z,0.00
2018-06-02T02:49:11.513Z,0.00
2018-06-02T02:50:09.602Z,0.00
2018-06-02T02:51:09.553Z,0.00
2018-06-02T02:52:09.573Z,0.00
2018-06-02T02:53:09.226Z,0.00
2018-06-02T02:54:09.515Z,0.00
2018-06-02T02:55:09.548Z,0.00
2018-06-02T02:56:09.588Z,0.00
2018-06-02T02:57:09.544Z,0.00
2018-06-02T02:58:09.860Z,0.00
2018-06-02T02:59:09.471Z,0.00
2018-06-02T03:00:09.777Z,0.00
2018-06-02T03:01:09.775Z,0.00
2018-06-02T03:02:09.554Z,0.00
2018-06-02T03:03:09.795Z,0.00
2018-06-02T03:04:09.780Z,0.00
2018-06-02T03:05:09.755Z,0.00
2018-06-02T03:06:09.787Z,0.00
2018-06-02T03:07:09.715Z,0.00
2018-06-02T03:08:09.694Z,0.00
2018-06-02T03:09:11.462Z,0.00
2018-06-02T03:10:10.642Z,0.00
2018-06-02T03:11:09.649Z,0.00
2018-06-02T03:12:15.775Z,0.00
2018-06-02T03:13:15.627Z,0.00
2018-06-02T03:14:09.698Z,0.00
2018-06-02T03:15:09.712Z,0.00
2018-06-02T03:16:09.541Z,0.00
2018-06-02T03:17:09.558Z,0.00
2018-06-02T03:18:09.611Z,0.00
2018-06-02T03:19:09.579Z,0.00
2018-06-02T03:20:09.623Z,0.00
2018-06-02T03:21:09.610Z,0.00
2018-06-02T03:22:09.667Z,0.00
2018-06-02T03:23:15.626Z,0.00
2018-06-02T03:24:09.657Z,0.00
2018-06-02T03:25:09.631Z,0.00
2018-06-02T03:26:10.276Z,0.00
2018-06-02T03:27:09.614Z,0.00
2018-06-02T03:28:09.611Z,0.00
2018-06-02T03:29:09.609Z,0.00
2018-06-02T03:30:09.253Z,0.00
2018-06-02T03:31:09.678Z,0.00
2018-06-02T03:32:09.618Z,0.00
2018-06-02T03:33:09.790Z,0.00
2018-06-02T03:34:09.632Z,0.00
2018-06-02T03:35:09.664Z,0.00
2018-06-02T03:36:09.698Z,0.00
2018-06-02T03:37:10.127Z,0.00
2018-06-02T03:38:09.618Z,0.00
2018-06-02T03:39:09.634Z,0.00
2018-06-02T03:40:09.619Z,0.00
2018-06-02T03:41:09.607Z,0.00
2018-06-02T03:42:09.611Z,0.00
2018-06-02T03:43:09.657Z,0.00
2018-06-02T03:44:09.687Z,0.00
2018-06-02T03:45:10.127Z,0.00
2018-06-02T03:46:09.624Z,0.00
2018-06-02T03:47:11.320Z,0.00
2018-06-02T03:48:11.294Z,0.00
2018-06-02T03:49:09.611Z,0.00
2018-06-02T03:50:08.326Z,0.00
2018-06-02T03:51:09.807Z,0.00
2018-06-02T03:52:09.541Z,0.00
2018-06-02T03:53:09.573Z,0.00
2018-06-02T03:54:09.559Z,0.00
2018-06-02T03:55:09.611Z,0.00
2018-06-02T03:56:09.573Z,0.00
2018-06-02T03:57:09.573Z,0.00
2018-06-02T03:58:11.554Z,0.00
2018-06-02T03:59:09.799Z,0.00
2018-06-02T04:00:09.596Z,0.00
2018-06-02T04:01:09.603Z,0.00
2018-06-02T04:02:09.814Z,0.00
2018-06-02T04:03:09.634Z,0.00
2018-06-02T04:04:09.272Z,0.00
2018-06-02T04:05:09.633Z,0.00
2018-06-02T04:06:09.633Z,0.00
2018-06-02T04:07:09.630Z,0.00
2018-06-02T04:08:09.624Z,0.00
2018-06-02T04:09:09.624Z,0.00
2018-06-02T04:10:09.630Z,0.00
2018-06-02T04:11:09.673Z,0.00
2018-06-02T04:12:09.619Z,0.00
2018-06-02T04:13:09.667Z,0.00
2018-06-02T04:14:09.634Z,0.00
2018-06-02T04:15:11.405Z,0.00
2018-06-02T04:17:09.638Z,0.00
2018-06-02T04:18:09.552Z,0.00
2018-06-02T04:19:09.500Z,0.00
2018-06-02T04:20:09.591Z,0.00
2018-06-02T04:21:09.607Z,0.00
2018-06-02T04:22:09.578Z,0.00
2018-06-02T04:23:09.589Z,0.00
2018-06-02T04:24:09.792Z,0.00
2018-06-02T04:25:09.617Z,0.00
2018-06-02T04:26:09.595Z,0.00
2018-06-02T04:27:09.605Z,0.00
2018-06-02T04:28:09.589Z,0.00
2018-06-02T04:29:09.558Z,0.00
2018-06-02T04:30:09.603Z,0.00
2018-06-02T04:31:09.618Z,5.63
2018-06-02T04:32:09.592Z,0.00
2018-06-02T04:33:09.609Z,0.00
2018-06-02T04:34:11.626Z,0.00
2018-06-02T04:35:09.616Z,0.00
2018-06-02T04:36:09.628Z,0.00
2018-06-02T04:37:09.637Z,0.00
2018-06-02T04:38:09.631Z,0.00
2018-06-02T04:39:09.640Z,0.00
2018-06-02T04:40:09.673Z,5.63
2018-06-02T04:41:09.692Z,5.63
2018-06-02T04:42:09.681Z,5.63
2018-06-02T04:43:09.612Z,5.63
2018-06-02T04:44:09.589Z,5.63
2018-06-02T04:45:11.349Z,5.63
2018-06-02T04:46:09.593Z,5.63
2018-06-02T04:47:09.579Z,5.63
2018-06-02T04:48:09.562Z,5.63
2018-06-02T04:49:10.516Z,5.63
2018-06-02T04:50:10.299Z,5.63
2018-06-02T04:51:09.578Z,5.63
2018-06-02T04:52:09.856Z,5.63
2018-06-02T04:53:09.810Z,5.63
2018-06-02T04:54:09.815Z,5.63
2018-06-02T04:55:10.308Z,5.63
2018-06-02T04:56:09.612Z,5.63
2018-06-02T04:57:09.605Z,5.63
2018-06-02T04:58:09.284Z,5.63
2018-06-02T04:59:09.609Z,5.63
2018-06-02T05:00:09.609Z,5.63
2018-06-02T05:01:09.619Z,5.63
2018-06-02T05:02:09.276Z,5.63
2018-06-02T05:03:09.629Z,5.63
2018-06-02T05:04:09.634Z,5.63
2018-06-02T05:05:09.620Z,11.25
2018-06-02T05:06:09.635Z,11.25
2018-06-02T05:07:11.831Z,11.25
2018-06-02T05:08:09.672Z,5.63
2018-06-02T05:09:09.673Z,11.25
2018-06-02T05:10:09.585Z,11.25
2018-06-02T05:11:11.338Z,5.63
2018-06-02T05:12:09.576Z,11.25
2018-06-02T05:13:09.863Z,11.25
2018-06-02T05:14:09.618Z,11.25
2018-06-02T05:15:09.711Z,11.25
2018-06-02T05:16:09.695Z,11.25
2018-06-02T05:17:09.671Z,11.25
2018-06-02T05:18:10.147Z,11.25
2018-06-02T05:19:09.613Z,11.25
2018-06-02T05:20:09.654Z,11.25
2018-06-02T05:21:11.623Z,11.25
2018-06-02T05:22:09.613Z,11.25
2018-06-02T05:23:09.619Z,11.25
2018-06-02T05:24:09.621Z,11.25
2018-06-02T05:25:09.611Z,11.25
2018-06-02T05:26:09.276Z,11.25
2018-06-02T05:27:09.621Z,11.25
2018-06-02T05:28:09.630Z,11.25
2018-06-02T05:29:09.659Z,11.25
2018-06-02T05:30:09.612Z,11.25
2018-06-02T05:31:09.644Z,11.25
2018-06-02T05:32:09.621Z,11.25
2018-06-02T05:33:09.611Z,11.25
2018-06-02T05:34:09.625Z,11.25
2018-06-02T05:35:09.635Z,11.25
2018-06-02T05:36:10.681Z,11.25
2018-06-02T05:37:09.637Z,11.25
2018-06-02T05:38:09.578Z,11.25
2018-06-02T05:39:09.565Z,11.25
2018-06-02T05:40:09.566Z,11.25
2018-06-02T05:41:09.627Z,11.25
2018-06-02T05:42:09.588Z,16.88
2018-06-02T05:43:09.585Z,16.88
2018-06-02T05:44:10.327Z,16.88
2018-06-02T05:45:09.569Z,16.88
2018-06-02T05:46:09.573Z,16.88
2018-06-02T05:47:09.622Z,16.88
2018-06-02T05:48:09.624Z,16.88
2018-06-02T05:49:09.646Z,16.88
2018-06-02T05:50:09.954Z,16.88
2018-06-02T05:51:09.711Z,16.88
2018-06-02T05:52:11.834Z,16.88
2018-06-02T05:53:09.666Z,16.88
2018-06-02T05:54:09.863Z,16.88
2018-06-02T05:55:09.856Z,16.88
2018-06-02T05:56:09.659Z,16.88
2018-06-02T05:57:09.696Z,16.88
2018-06-02T05:58:09.743Z,16.88
2018-06-02T05:59:09.856Z,16.88
2018-06-02T06:00:10.197Z,16.88
2018-06-02T06:01:09.671Z,16.88
2018-06-02T06:02:09.674Z,11.25
2018-06-02T06:03:09.640Z,16.88
2018-06-02T06:04:11.454Z,16.88
2018-06-02T06:05:11.491Z,16.88
2018-06-02T06:06:09.621Z,11.25
2018-06-02T06:07:09.588Z,11.25
2018-06-02T06:08:09.566Z,11.25
2018-06-02T06:09:09.576Z,16.88
2018-06-02T06:10:09.559Z,16.88
2018-06-02T06:11:09.621Z,16.88
2018-06-02T06:12:09.611Z,16.88
2018-06-02T06:13:09.583Z,16.88
2018-06-02T06:14:09.644Z,16.88
2018-06-02T06:15:09.665Z,16.88
2018-06-02T06:16:09.282Z,16.88
2018-06-02T06:17:09.838Z,16.88
2018-06-02T06:18:09.645Z,16.88
2018-06-02T06:19:09.659Z,16.88
2018-06-02T06:20:09.651Z,22.50
2018-06-02T06:21:09.700Z,22.50
2018-06-02T06:22:09.631Z,22.50
2018-06-02T06:23:09.675Z,28.13
2018-06-02T06:24:09.721Z,28.13
2018-06-02T06:25:10.333Z,28.13
2018-06-02T06:26:09.671Z,28.13
2018-06-02T06:27:09.661Z,28.13
2018-06-02T06:28:09.627Z,28.13
2018-06-02T06:29:09.683Z,28.13
2018-06-02T06:30:09.639Z,28.13
2018-06-02T06:31:09.622Z,28.13
2018-06-02T06:32:09.811Z,28.13
2018-06-02T06:33:11.208Z,28.13
2018-06-02T06:34:09.725Z,28.13
2018-06-02T06:35:09.708Z,28.13
2018-06-02T06:36:09.668Z,28.13
2018-06-02T06:37:09.719Z,28.13
2018-06-02T06:38:10.344Z,28.13
2018-06-02T06:39:09.797Z,28.13
2018-06-02T06:40:09.663Z,22.50
2018-06-02T06:41:09.700Z,22.50
2018-06-02T06:42:09.939Z,22.50
2018-06-02T06:43:09.624Z,22.50
2018-06-02T06:44:09.703Z,28.13
2018-06-02T06:45:09.638Z,28.13
2018-06-02T06:46:09.619Z,28.13
2018-06-02T06:47:09.648Z,33.75
2018-06-02T06:48:10.287Z,33.75
2018-06-02T06:49:09.771Z,28.13
2018-06-02T06:50:11.558Z,28.13
2018-06-02T06:51:09.586Z,22.50
2018-06-02T06:52:09.364Z,22.50
2018-06-02T06:53:09.612Z,22.50
2018-06-02T06:54:09.642Z,22.50
2018-06-02T06:55:09.891Z,22.50
2018-06-02T06:56:11.539Z,22.50
2018-06-02T06:57:09.715Z,16.88
2018-06-02T06:58:09.699Z,16.88
2018-06-02T06:59:09.736Z,22.50
2018-06-02T07:00:09.700Z,22.50
2018-06-02T07:01:09.760Z,22.50
2018-06-02T07:02:09.670Z,22.50
2018-06-02T07:03:09.561Z,16.88
2018-06-02T07:04:09.655Z,22.50
2018-06-02T07:05:09.632Z,22.50
2018-06-02T07:06:09.628Z,22.50
2018-06-02T07:07:09.704Z,16.88
2018-06-02T07:08:09.636Z,16.88
2018-06-02T07:09:09.629Z,22.50
2018-06-02T07:10:09.351Z,16.88
2018-06-02T07:11:09.711Z,16.88
2018-06-02T07:12:09.941Z,16.88
2018-06-02T07:13:10.200Z,22.50
2018-06-02T07:14:09.536Z,22.50
2018-06-02T07:15:09.357Z,22.50
2018-06-02T07:16:09.630Z,22.50
2018-06-02T07:17:09.699Z,22.50
2018-06-02T07:18:15.971Z,22.50
2018-06-02T07:19:17.995Z,22.50
2018-06-02T07:20:15.659Z,28.13
2018-06-02T07:21:09.663Z,28.13
2018-06-02T07:22:09.669Z,33.75
2018-06-02T07:23:09.854Z,33.75
2018-06-02T07:24:09.796Z,33.75
2018-06-02T07:25:09.736Z,39.38
2018-06-02T07:26:09.721Z,39.38
2018-06-02T07:27:09.719Z,39.38
2018-06-02T07:28:09.733Z,39.38
2018-06-02T07:29:09.759Z,39.38
2018-06-02T07:30:09.733Z,39.38
2018-06-02T07:31:09.645Z,39.38
2018-06-02T07:32:11.641Z,39.38
2018-06-02T07:33:09.624Z,39.38
2018-06-02T07:34:09.672Z,39.38
2018-06-02T07:35:09.612Z,39.38
2018-06-02T07:36:09.731Z,39.38
2018-06-02T07:37:11.432Z,45.00
2018-06-02T07:38:09.661Z,45.00
2018-06-02T07:39:09.639Z,45.00
2018-06-02T07:40:09.672Z,45.00
2018-06-02T07:41:09.694Z,45.00
2018-06-02T07:42:10.167Z,45.00
2018-06-02T07:43:10.049Z,50.63
2018-06-02T07:44:10.093Z,50.63
2018-06-02T07:45:09.866Z,45.00
2018-06-02T07:46:10.236Z,50.63
2018-06-02T07:47:09.466Z,45.00
2018-06-02T07:48:09.880Z,39.38
2018-06-02T07:49:10.223Z,33.75
2018-06-02T07:50:10.256Z,39.38
2018-06-02T07:51:09.385Z,39.38
2018-06-02T07:52:09.724Z,50.63
2018-06-02T07:53:10.232Z,50.63
2018-06-02T07:54:09.785Z,56.25
2018-06-02T07:55:09.775Z,67.50
2018-06-02T07:56:11.561Z,73.13
2018-06-02T07:57:10.232Z,61.88
2018-06-02T07:58:09.942Z,67.50
2018-06-02T07:59:10.278Z,61.88
2018-06-02T08:00:10.275Z,56.25
2018-06-02T08:01:09.654Z,56.25
2018-06-02T08:02:09.716Z,39.38
2018-06-02T08:03:09.629Z,45.00
2018-06-02T08:04:09.637Z,45.00
2018-06-02T08:05:09.656Z,56.25
2018-06-02T08:06:09.703Z,50.63
2018-06-02T08:07:09.650Z,61.88
2018-06-02T08:08:15.640Z,56.25
2018-06-02T08:09:09.869Z,61.88
2018-06-02T08:10:09.919Z,61.88
2018-06-02T08:11:09.368Z,50.63
2018-06-02T08:12:09.717Z,50.63
2018-06-02T08:13:09.925Z,56.25
2018-06-02T08:14:10.217Z,50.63
2018-06-02T08:15:09.699Z,56.25
2018-06-02T08:16:09.654Z,56.25
2018-06-02T08:17:09.926Z,50.63
2018-06-02T08:18:09.783Z,50.63
2018-06-02T08:19:10.354Z,50.63
2018-06-02T08:20:09.603Z,45.00
2018-06-02T08:21:09.681Z,45.00
2018-06-02T08:22:08.306Z,56.25
2018-06-02T08:23:09.724Z,50.63
2018-06-02T08:24:09.923Z,50.63
2018-06-02T08:25:10.997Z,45.00
2018-06-02T08:26:08.316Z,61.88
2018-06-02T08:27:09.873Z,67.50
2018-06-02T08:28:09.873Z,61.88
2018-06-02T08:29:22.976Z,61.88
2018-06-02T08:30:09.921Z,73.13
2018-06-02T08:31:09.776Z,67.50
2018-06-02T08:32:16.227Z,67.50
2018-06-02T08:33:24.044Z,67.50
2018-06-02T08:34:09.655Z,67.50
2018-06-02T08:35:09.661Z,67.50
2018-06-02T08:36:11.884Z,67.50
2018-06-02T08:37:09.883Z,67.50
2018-06-02T08:38:09.619Z,67.50
2018-06-02T08:39:09.665Z,67.50
2018-06-02T08:40:09.931Z,61.88
2018-06-02T08:41:09.855Z,67.50
2018-06-02T08:42:09.886Z,73.13
2018-06-02T08:43:10.611Z,67.50
2018-06-02T08:44:09.779Z,73.13
2018-06-02T08:45:09.704Z,67.50
2018-06-02T08:46:09.718Z,67.50
2018-06-02T08:47:09.447Z,67.50
2018-06-02T08:48:09.784Z,67.50
2018-06-02T08:49:10.208Z,73.13
2018-06-02T08:50:09.771Z,67.50
2018-06-02T08:51:09.650Z,61.88
2018-06-02T08:52:09.333Z,67.50
2018-06-02T08:53:11.390Z,67.50
2018-06-02T08:54:09.640Z,61.88
2018-06-02T08:55:09.644Z,61.88
2018-06-02T08:56:09.631Z,61.88
2018-06-02T08:57:11.476Z,73.13
2018-06-02T08:58:09.648Z,78.75
2018-06-02T08:59:09.678Z,101.25
2018-06-02T09:00:11.480Z,123.75
2018-06-02T09:01:09.900Z,123.75
2018-06-02T09:02:09.688Z,118.13
2018-06-02T09:03:09.631Z,106.88
2018-06-02T09:04:09.680Z,101.25
2018-06-02T09:05:09.752Z,90.00
2018-06-02T09:06:09.633Z,95.63
2018-06-02T09:07:09.748Z,95.63
2018-06-02T09:08:09.710Z,90.00
2018-06-02T09:09:09.896Z,118.13
2018-06-02T09:10:09.786Z,146.25
2018-06-02T09:11:09.720Z,129.38
2018-06-02T09:12:11.937Z,106.88
2018-06-02T09:13:09.795Z,90.00
2018-06-02T09:14:09.897Z,95.63
2018-06-02T09:15:09.715Z,101.25
2018-06-02T09:16:09.900Z,106.88
2018-06-02T09:17:09.895Z,112.50
2018-06-02T09:18:09.897Z,123.75
2018-06-02T09:19:09.916Z,106.88
2018-06-02T09:20:09.896Z,78.75
2018-06-02T09:21:09.444Z,67.50
2018-06-02T09:22:09.701Z,61.88
2018-06-02T09:23:09.728Z,73.13
2018-06-02T09:24:09.960Z,95.63
2018-06-02T09:25:10.175Z,106.88
2018-06-02T09:27:43.620Z,118.13
2018-06-02T09:28:42.716Z,118.13
2018-06-02T09:30:37.125Z,135.00
2018-06-02T09:31:37.454Z,140.63
2018-06-02T09:33:32.359Z,185.63
2018-06-02T09:34:32.157Z,185.63
2018-06-02T09:36:25.655Z,163.13
2018-06-02T09:37:26.259Z,129.38
2018-06-02T09:39:20.358Z,123.75
2018-06-02T09:40:20.788Z,118.13
2018-06-02T09:42:15.212Z,151.88
2018-06-02T09:43:16.497Z,180.00
2018-06-02T09:45:09.212Z,191.25
2018-06-02T09:46:09.343Z,185.63
2018-06-02T09:47:09.575Z,185.63
2018-06-02T09:48:09.594Z,191.25
2018-06-02T09:49:09.592Z,191.25
2018-06-02T09:50:09.639Z,191.25
2018-06-02T09:51:09.587Z,185.63
2018-06-02T09:52:09.351Z,180.00
2018-06-02T09:53:09.585Z,180.00
2018-06-02T09:54:09.390Z,196.88
2018-06-02T09:55:09.906Z,191.25
2018-06-02T09:56:09.397Z,174.38
2018-06-02T09:57:07.922Z,163.13
2018-06-02T09:58:09.633Z,196.88
2018-06-02T09:59:09.579Z,191.25
2018-06-02T10:00:09.934Z,180.00
2018-06-02T10:01:09.310Z,163.13
2018-06-02T10:02:11.590Z,151.88
2018-06-02T10:03:09.901Z,146.25
2018-06-02T10:04:09.334Z,168.75
2018-06-02T10:05:09.552Z,191.25
2018-06-02T10:06:09.357Z,191.25
2018-06-02T10:07:09.357Z,174.38
2018-06-02T10:08:09.584Z,191.25
2018-06-02T10:09:09.544Z,174.38
2018-06-02T10:10:09.700Z,163.13
2018-06-02T10:11:09.417Z,168.75
2018-06-02T10:13:09.169Z,157.50
2018-06-02T10:15:06.134Z,140.63
2018-06-02T10:16:03.697Z,140.63
2018-06-02T10:17:58.446Z,129.38
2018-06-02T10:18:58.333Z,123.75
2018-06-02T10:20:51.628Z,151.88
2018-06-02T10:21:51.643Z,163.13
2018-06-02T10:23:47.360Z,157.50
2018-06-02T10:24:46.695Z,163.13
2018-06-02T10:26:41.092Z,168.75
2018-06-02T10:27:40.878Z,163.13
2018-06-02T10:29:34.443Z,140.63
2018-06-02T10:30:37.743Z,123.75
2018-06-02T10:32:28.917Z,106.88
2018-06-02T10:33:28.917Z,95.63
2018-06-02T10:35:22.993Z,73.13
2018-06-02T10:36:23.949Z,84.38
2018-06-02T10:38:17.839Z,95.63
2018-06-02T10:41:11.469Z,146.25
2018-06-02T10:43:25.980Z,151.88
2018-06-02T10:44:27.222Z,146.25
2018-06-02T10:45:26.048Z,151.88
2018-06-02T10:46:26.069Z,151.88
2018-06-02T10:47:26.463Z,157.50
2018-06-02T10:48:26.652Z,151.88
2018-06-02T10:49:26.489Z,146.25
2018-06-02T10:50:26.472Z,135.00
2018-06-02T10:51:52.865Z,123.75
2018-06-02T10:52:41.994Z,118.13
2018-06-02T10:53:26.457Z,112.50
2018-06-02T10:54:26.462Z,112.50
2018-06-02T10:55:26.108Z,118.13
2018-06-02T10:56:26.498Z,135.00
2018-06-02T10:57:26.509Z,151.88
2018-06-02T10:58:26.129Z,174.38
2018-06-02T10:59:26.766Z,196.88
2018-06-02T11:00:26.681Z,213.75
2018-06-02T11:01:26.012Z,225.00
2018-06-02T11:02:26.683Z,236.25
2018-06-02T11:03:26.448Z,247.50
2018-06-02T11:04:26.050Z,247.50
2018-06-02T11:06:55.679Z,230.63
2018-06-02T11:07:49.773Z,202.50
2018-06-02T11:09:26.492Z,196.88
2018-06-02T11:10:32.692Z,157.50
2018-06-02T11:11:26.546Z,135.00
2018-06-02T11:12:26.177Z,123.75
2018-06-02T11:13:26.083Z,101.25
2018-06-02T11:14:26.455Z,95.63
2018-06-02T11:16:26.209Z,106.88
2018-06-02T11:17:26.532Z,112.50
2018-06-02T11:18:28.221Z,106.88
2018-06-02T11:19:55.263Z,95.63
2018-06-02T11:20:26.577Z,78.75
2018-06-02T11:21:26.740Z,73.13
2018-06-02T11:22:26.514Z,73.13
2018-06-02T11:23:26.542Z,67.50
2018-06-02T11:24:27.672Z,67.50
2018-06-02T11:25:42.331Z,61.88
2018-06-02T11:28:00.199Z,50.63
2018-06-02T11:30:23.743Z,45.00
2018-06-02T11:32:35.942Z,56.25
2018-06-02T11:33:29.109Z,61.88
2018-06-02T11:35:26.495Z,61.88
2018-06-02T11:36:25.089Z,61.88
2018-06-02T11:38:17.082Z,67.50
2018-06-02T11:39:17.385Z,73.13
2018-06-02T11:41:11.550Z,90.00
2018-06-02T11:42:12.216Z,106.88
2018-06-02T11:44:07.853Z,140.63
2018-06-02T11:45:08.385Z,168.75
2018-06-02T11:47:08.178Z,225.00
2018-06-02T11:48:08.340Z,253.13
2018-06-02T11:49:08.783Z,275.63
2018-06-02T11:50:08.170Z,247.50
2018-06-02T11:51:08.431Z,219.38
2018-06-02T11:52:08.412Z,168.75
2018-06-02T11:53:08.203Z,129.38
2018-06-02T11:54:08.836Z,112.50
2018-06-02T11:55:12.189Z,112.50
2018-06-02T11:56:10.401Z,112.50
2018-06-02T11:57:08.183Z,106.88
2018-06-02T11:58:08.176Z,101.25
2018-06-02T11:59:08.204Z,101.25
2018-06-02T12:00:10.829Z,95.63
2018-06-02T12:01:08.463Z,90.00
2018-06-02T12:02:08.467Z,90.00
2018-06-02T12:03:08.222Z,90.00
2018-06-02T12:04:08.878Z,95.63
2018-06-02T12:05:10.960Z,106.88
2018-06-02T12:06:08.387Z,118.13
2018-06-02T12:07:09.662Z,129.38
2018-06-02T12:08:08.405Z,140.63
2018-06-02T12:09:08.112Z,146.25
2018-06-02T12:10:07.745Z,151.88
2018-06-02T12:11:08.134Z,151.88
2018-06-02T12:12:08.389Z,151.88
2018-06-02T12:13:08.418Z,146.25
2018-06-02T12:14:08.892Z,140.63
2018-06-02T12:15:08.481Z,146.25
2018-06-02T12:16:08.359Z,140.63
2018-06-02T12:17:10.360Z,140.63
2018-06-02T12:18:14.896Z,146.25
2018-06-02T12:19:08.722Z,140.63
2018-06-02T12:20:08.274Z,129.38
2018-06-02T12:21:09.654Z,118.13
2018-06-02T12:22:11.871Z,112.50
2018-06-02T12:23:14.924Z,118.13
2018-06-02T12:24:08.151Z,129.38
2018-06-02T12:25:08.401Z,146.25
2018-06-02T12:26:08.457Z,146.25
2018-06-02T12:27:08.709Z,135.00
2018-06-02T12:28:08.175Z,123.75
2018-06-02T12:29:08.147Z,112.50
2018-06-02T12:30:08.143Z,112.50
2018-06-02T12:31:09.140Z,118.13
2018-06-02T12:32:16.883Z,118.13
2018-06-02T12:33:10.431Z,123.75
2018-06-02T12:34:07.855Z,135.00
2018-06-02T12:35:10.023Z,129.38
2018-06-02T12:36:10.961Z,129.38
2018-06-02T12:37:16.463Z,129.38
2018-06-02T12:38:16.526Z,140.63
2018-06-02T12:39:10.865Z,151.88
2018-06-02T12:40:08.388Z,151.88
2018-06-02T12:41:10.229Z,140.63
2018-06-02T12:42:10.192Z,129.38
2018-06-02T12:43:10.222Z,123.75
2018-06-02T12:44:08.476Z,123.75
2018-06-02T12:45:08.724Z,129.38
2018-06-02T12:46:10.293Z,129.38
2018-06-02T12:47:14.866Z,135.00
2018-06-02T12:48:08.139Z,140.63
2018-06-02T12:49:08.252Z,146.25
2018-06-02T12:50:14.923Z,146.25
2018-06-02T12:51:09.367Z,140.63
2018-06-02T12:52:07.870Z,135.00
2018-06-02T12:53:08.325Z,118.13
2018-06-02T12:54:08.912Z,95.63
2018-06-02T12:55:12.775Z,73.13
2018-06-02T12:56:08.705Z,56.25
2018-06-02T12:57:08.239Z,50.63
2018-06-02T12:58:08.500Z,45.00
2018-06-02T12:59:08.371Z,39.38
2018-06-02T13:00:08.934Z,45.00
2018-06-02T13:01:08.951Z,50.63
2018-06-02T13:02:08.294Z,56.25
2018-06-02T13:03:08.586Z,61.88
2018-06-02T13:04:14.911Z,67.50
2018-06-02T13:05:08.757Z,78.75
2018-06-02T13:06:08.722Z,90.00
2018-06-02T13:07:08.713Z,90.00
2018-06-02T13:08:10.313Z,90.00
2018-06-02T13:09:09.287Z,90.00
2018-06-02T13:10:08.354Z,78.75
2018-06-02T13:11:08.358Z,90.00
2018-06-02T13:12:08.192Z,84.38
2018-06-02T13:13:07.997Z,78.75
2018-06-02T13:14:08.270Z,90.00
2018-06-02T13:15:08.822Z,101.25
2018-06-02T13:16:10.219Z,112.50
2018-06-02T13:17:10.875Z,118.13
2018-06-02T13:18:10.184Z,118.13
2018-06-02T13:19:09.198Z,118.13
2018-06-02T13:20:10.184Z,118.13
2018-06-02T13:21:10.194Z,118.13
2018-06-02T13:22:10.717Z,123.75
2018-06-02T13:23:09.047Z,135.00
2018-06-02T13:24:10.727Z,140.63
2018-06-02T13:25:08.910Z,146.25
2018-06-02T13:26:10.459Z,151.88
2018-06-02T13:27:09.285Z,151.88
2018-06-02T13:28:08.282Z,140.63